sensor_id;sensor_type;location;lat;lon;timestamp;P1;durP1;ratioP1;P2;durP2;ratioP2
58689;SDS011;44470;53.206;-6.106;2022-10-18T00:02:05;12.65;;;9.75;;
58689;SDS011;44470;53.206;-6.106;2022-10-18T00:04:31;13.55;;;9.48;;
58689;SDS011;44470;53.206;-6.106;2022-10-18T00:09:43;11.85;;;8.30;;
58689;SDS011;44470;53.206;-6.106;2022-10-18T00:12:09;12.38;;;8.60;;
58689;SDS011;44470;53.206;-6.106;2022-10-18T00:14:34;11.90;;;7.80;;
58689;SDS011;44470;53.206;-6.106;2022-10-18T00:17:00;9.25;;;7.55;;
58689;SDS011;44470;53.206;-6.106;2022-10-18T00:19:28;9.73;;;7.43;;
58689;SDS011;44470;53.206;-6.106;2022-10-18T00:21:54;10.85;;;7.10;;
58689;SDS011;44470;53.206;-6.106;2022-10-18T00:24:19;9.18;;;6.65;;
58689;SDS011;44470;53.206;-6.106;2022-10-18T00:26:45;9.27;;;6.88;;
58689;SDS011;44470;53.206;-6.106;2022-10-18T00:29:12;9.27;;;6.25;;
58689;SDS011;44470;53.206;-6.106;2022-10-18T00:31:39;9.88;;;6.10;;
58689;SDS011;44470;53.206;-6.106;2022-10-18T00:34:12;9.88;;;6.50;;
58689;SDS011;44470;53.206;-6.106;2022-10-18T00:36:39;6.38;;;5.50;;
58689;SDS011;44470;53.206;-6.106;2022-10-18T00:39:06;9.90;;;6.20;;
58689;SDS011;44470;53.206;-6.106;2022-10-18T00:41:34;7.45;;;5.47;;
58689;SDS011;44470;53.206;-6.106;2022-10-18T00:44:55;6.82;;;5.00;;
58689;SDS011;44470;53.206;-6.106;2022-10-18T00:46:50;8.05;;;6.22;;
58689;SDS011;44470;53.206;-6.106;2022-10-18T00:49:19;7.18;;;5.20;;
58689;SDS011;44470;53.206;-6.106;2022-10-18T00:51:49;6.57;;;5.38;;
58689;SDS011;44470;53.206;-6.106;2022-10-18T00:54:34;6.72;;;4.82;;
58689;SDS011;44470;53.206;-6.106;2022-10-18T00:57:03;6.68;;;4.68;;
58689;SDS011;44470;53.206;-6.106;2022-10-18T00:59:30;5.28;;;4.43;;
58689;SDS011;44470;53.206;-6.106;2022-10-18T01:01:55;6.15;;;4.30;;
58689;SDS011;44470;53.206;-6.106;2022-10-18T01:04:21;7.13;;;4.35;;
58689;SDS011;44470;53.206;-6.106;2022-10-18T01:09:25;8.68;;;4.60;;
58689;SDS011;44470;53.206;-6.106;2022-10-18T01:14:46;4.90;;;3.83;;
58689;SDS011;44470;53.206;-6.106;2022-10-18T01:17:18;5.47;;;3.83;;
58689;SDS011;44470;53.206;-6.106;2022-10-18T01:22:27;4.20;;;3.70;;
58689;SDS011;44470;53.206;-6.106;2022-10-18T01:25:49;4.68;;;3.55;;
58689;SDS011;44470;53.206;-6.106;2022-10-18T01:28:19;5.22;;;3.70;;
58689;SDS011;44470;53.206;-6.106;2022-10-18T01:31:08;4.32;;;3.33;;
58689;SDS011;44470;53.206;-6.106;2022-10-18T01:37:28;4.25;;;3.10;;
58689;SDS011;44470;53.206;-6.106;2022-10-18T01:39:55;3.55;;;3.03;;
58689;SDS011;44470;53.206;-6.106;2022-10-18T01:42:22;3.60;;;3.13;;
58689;SDS011;44470;53.206;-6.106;2022-10-18T01:44:49;5.68;;;3.40;;
58689;SDS011;44470;53.206;-6.106;2022-10-18T01:47:16;3.08;;;2.88;;
58689;SDS011;44470;53.206;-6.106;2022-10-18T01:49:43;3.50;;;3.00;;
58689;SDS011;44470;53.206;-6.106;2022-10-18T01:52:12;3.38;;;3.08;;
58689;SDS011;44470;53.206;-6.106;2022-10-18T01:54:40;3.80;;;2.83;;
58689;SDS011;44470;53.206;-6.106;2022-10-18T01:57:28;6.32;;;3.00;;
58689;SDS011;44470;53.206;-6.106;2022-10-18T02:05:37;3.53;;;2.53;;
58689;SDS011;44470;53.206;-6.106;2022-10-18T02:08:16;4.22;;;2.85;;
58689;SDS011;44470;53.206;-6.106;2022-10-18T02:13:17;2.72;;;2.53;;
58689;SDS011;44470;53.206;-6.106;2022-10-18T02:15:50;2.58;;;2.38;;
58689;SDS011;44470;53.206;-6.106;2022-10-18T02:18:28;2.65;;;2.45;;
58689;SDS011;44470;53.206;-6.106;2022-10-18T02:21:00;3.20;;;2.58;;
58689;SDS011;44470;53.206;-6.106;2022-10-18T02:23:27;2.67;;;2.30;;
58689;SDS011;44470;53.206;-6.106;2022-10-18T02:25:54;3.95;;;2.53;;
58689;SDS011;44470;53.206;-6.106;2022-10-18T02:28:19;2.70;;;2.13;;
58689;SDS011;44470;53.206;-6.106;2022-10-18T02:30:57;2.83;;;2.55;;
58689;SDS011;44470;53.206;-6.106;2022-10-18T02:33:52;2.85;;;2.15;;
58689;SDS011;44470;53.206;-6.106;2022-10-18T02:36:22;3.08;;;2.30;;
58689;SDS011;44470;53.206;-6.106;2022-10-18T02:38:49;3.13;;;2.15;;
58689;SDS011;44470;53.206;-6.106;2022-10-18T02:41:24;3.35;;;2.20;;
58689;SDS011;44470;53.206;-6.106;2022-10-18T02:43:51;2.70;;;2.50;;
58689;SDS011;44470;53.206;-6.106;2022-10-18T02:46:17;2.53;;;2.33;;
58689;SDS011;44470;53.206;-6.106;2022-10-18T02:48:44;2.42;;;2.17;;
58689;SDS011;44470;53.206;-6.106;2022-10-18T02:51:09;2.08;;;1.98;;
58689;SDS011;44470;53.206;-6.106;2022-10-18T02:53:35;2.05;;;1.85;;
58689;SDS011;44470;53.206;-6.106;2022-10-18T02:56:00;2.05;;;1.80;;
58689;SDS011;44470;53.206;-6.106;2022-10-18T02:58:27;3.38;;;2.00;;
58689;SDS011;44470;53.206;-6.106;2022-10-18T03:00:53;2.38;;;2.00;;
58689;SDS011;44470;53.206;-6.106;2022-10-18T03:03:19;3.20;;;1.73;;
58689;SDS011;44470;53.206;-6.106;2022-10-18T03:05:47;2.15;;;1.95;;
58689;SDS011;44470;53.206;-6.106;2022-10-18T03:08:13;2.13;;;1.90;;
58689;SDS011;44470;53.206;-6.106;2022-10-18T03:10:39;2.30;;;1.83;;
58689;SDS011;44470;53.206;-6.106;2022-10-18T03:13:04;2.78;;;2.00;;
58689;SDS011;44470;53.206;-6.106;2022-10-18T03:15:30;2.20;;;2.00;;
58689;SDS011;44470;53.206;-6.106;2022-10-18T03:17:55;1.85;;;1.60;;
58689;SDS011;44470;53.206;-6.106;2022-10-18T03:20:21;2.55;;;1.70;;
58689;SDS011;44470;53.206;-6.106;2022-10-18T03:22:47;2.42;;;1.45;;
58689;SDS011;44470;53.206;-6.106;2022-10-18T03:25:12;2.35;;;1.65;;
58689;SDS011;44470;53.206;-6.106;2022-10-18T03:27:38;1.80;;;1.70;;
58689;SDS011;44470;53.206;-6.106;2022-10-18T03:30:04;1.88;;;1.60;;
58689;SDS011;44470;53.206;-6.106;2022-10-18T03:32:30;1.75;;;1.63;;
58689;SDS011;44470;53.206;-6.106;2022-10-18T03:34:55;1.88;;;1.40;;
58689;SDS011;44470;53.206;-6.106;2022-10-18T03:37:20;1.52;;;1.42;;
58689;SDS011;44470;53.206;-6.106;2022-10-18T03:39:46;1.40;;;1.30;;
58689;SDS011;44470;53.206;-6.106;2022-10-18T03:42:12;1.70;;;1.60;;
58689;SDS011;44470;53.206;-6.106;2022-10-18T03:44:37;1.55;;;1.35;;
58689;SDS011;44470;53.206;-6.106;2022-10-18T03:47:02;1.80;;;1.45;;
58689;SDS011;44470;53.206;-6.106;2022-10-18T03:49:28;2.00;;;1.38;;
58689;SDS011;44470;53.206;-6.106;2022-10-18T03:51:53;1.58;;;1.33;;
58689;SDS011;44470;53.206;-6.106;2022-10-18T03:54:19;1.27;;;1.17;;
58689;SDS011;44470;53.206;-6.106;2022-10-18T03:56:44;1.23;;;1.13;;
58689;SDS011;44470;53.206;-6.106;2022-10-18T03:59:10;1.45;;;1.35;;
58689;SDS011;44470;53.206;-6.106;2022-10-18T04:01:35;1.10;;;1.00;;
58689;SDS011;44470;53.206;-6.106;2022-10-18T04:04:01;1.90;;;1.55;;
58689;SDS011;44470;53.206;-6.106;2022-10-18T04:06:26;2.15;;;1.42;;
58689;SDS011;44470;53.206;-6.106;2022-10-18T04:08:53;1.17;;;1.10;;
58689;SDS011;44470;53.206;-6.106;2022-10-18T04:11:19;1.90;;;1.33;;
58689;SDS011;44470;53.206;-6.106;2022-10-18T04:13:44;1.20;;;1.10;;
58689;SDS011;44470;53.206;-6.106;2022-10-18T04:16:10;1.20;;;1.08;;
58689;SDS011;44470;53.206;-6.106;2022-10-18T04:18:37;1.10;;;0.93;;
58689;SDS011;44470;53.206;-6.106;2022-10-18T04:21:03;1.70;;;1.33;;
58689;SDS011;44470;53.206;-6.106;2022-10-18T04:23:28;1.45;;;1.27;;
58689;SDS011;44470;53.206;-6.106;2022-10-18T04:25:54;2.63;;;1.30;;
58689;SDS011;44470;53.206;-6.106;2022-10-18T04:28:19;1.08;;;0.98;;
58689;SDS011;44470;53.206;-6.106;2022-10-18T04:30:49;2.25;;;1.20;;
58689;SDS011;44470;53.206;-6.106;2022-10-18T04:33:17;0.70;;;0.70;;
58689;SDS011;44470;53.206;-6.106;2022-10-18T04:35:44;1.50;;;1.10;;
58689;SDS011;44470;53.206;-6.106;2022-10-18T04:38:10;1.35;;;1.20;;
58689;SDS011;44470;53.206;-6.106;2022-10-18T04:40:35;1.92;;;1.05;;
58689;SDS011;44470;53.206;-6.106;2022-10-18T04:43:01;1.20;;;0.95;;
58689;SDS011;44470;53.206;-6.106;2022-10-18T04:45:27;1.25;;;0.88;;
58689;SDS011;44470;53.206;-6.106;2022-10-18T04:47:52;1.02;;;0.90;;
58689;SDS011;44470;53.206;-6.106;2022-10-18T04:50:18;1.23;;;0.88;;
58689;SDS011;44470;53.206;-6.106;2022-10-18T04:52:43;2.72;;;1.05;;
58689;SDS011;44470;53.206;-6.106;2022-10-18T04:55:09;1.63;;;0.93;;
58689;SDS011;44470;53.206;-6.106;2022-10-18T04:57:34;1.17;;;0.80;;
58689;SDS011;44470;53.206;-6.106;2022-10-18T05:00:00;2.05;;;0.82;;
58689;SDS011;44470;53.206;-6.106;2022-10-18T05:02:26;1.02;;;0.80;;
58689;SDS011;44470;53.206;-6.106;2022-10-18T05:04:51;1.05;;;0.80;;
58689;SDS011;44470;53.206;-6.106;2022-10-18T05:07:17;0.57;;;0.57;;
58689;SDS011;44470;53.206;-6.106;2022-10-18T05:09:43;0.75;;;0.75;;
58689;SDS011;44470;53.206;-6.106;2022-10-18T05:12:08;0.80;;;0.80;;
58689;SDS011;44470;53.206;-6.106;2022-10-18T05:14:34;0.40;;;0.40;;
58689;SDS011;44470;53.206;-6.106;2022-10-18T05:16:59;0.90;;;0.90;;
58689;SDS011;44470;53.206;-6.106;2022-10-18T05:19:24;1.05;;;0.90;;
58689;SDS011;44470;53.206;-6.106;2022-10-18T05:21:50;0.85;;;0.70;;
58689;SDS011;44470;53.206;-6.106;2022-10-18T05:24:16;0.60;;;0.60;;
58689;SDS011;44470;53.206;-6.106;2022-10-18T05:26:41;2.20;;;0.90;;
58689;SDS011;44470;53.206;-6.106;2022-10-18T05:29:07;1.15;;;1.00;;
58689;SDS011;44470;53.206;-6.106;2022-10-18T05:31:32;0.82;;;0.80;;
58689;SDS011;44470;53.206;-6.106;2022-10-18T05:33:58;0.55;;;0.50;;
58689;SDS011;44470;53.206;-6.106;2022-10-18T05:36:25;0.60;;;0.60;;
58689;SDS011;44470;53.206;-6.106;2022-10-18T05:38:51;0.98;;;0.85;;
58689;SDS011;44470;53.206;-6.106;2022-10-18T05:41:17;0.60;;;0.55;;
58689;SDS011;44470;53.206;-6.106;2022-10-18T05:43:43;0.63;;;0.52;;
58689;SDS011;44470;53.206;-6.106;2022-10-18T05:46:10;0.80;;;0.70;;
58689;SDS011;44470;53.206;-6.106;2022-10-18T05:48:37;0.82;;;0.80;;
58689;SDS011;44470;53.206;-6.106;2022-10-18T05:51:02;0.47;;;0.40;;
58689;SDS011;44470;53.206;-6.106;2022-10-18T05:53:28;0.60;;;0.60;;
58689;SDS011;44470;53.206;-6.106;2022-10-18T05:55:54;0.60;;;0.60;;
58689;SDS011;44470;53.206;-6.106;2022-10-18T05:58:19;1.42;;;0.70;;
58689;SDS011;44470;53.206;-6.106;2022-10-18T06:00:45;1.33;;;0.52;;
58689;SDS011;44470;53.206;-6.106;2022-10-18T06:03:10;1.25;;;0.40;;
58689;SDS011;44470;53.206;-6.106;2022-10-18T06:05:36;0.70;;;0.50;;
58689;SDS011;44470;53.206;-6.106;2022-10-18T06:08:01;0.50;;;0.50;;
58689;SDS011;44470;53.206;-6.106;2022-10-18T06:10:27;0.90;;;0.47;;
58689;SDS011;44470;53.206;-6.106;2022-10-18T06:12:53;0.65;;;0.65;;
58689;SDS011;44470;53.206;-6.106;2022-10-18T06:15:18;0.75;;;0.70;;
58689;SDS011;44470;53.206;-6.106;2022-10-18T06:17:46;1.80;;;0.50;;
58689;SDS011;44470;53.206;-6.106;2022-10-18T06:20:12;0.30;;;0.30;;
58689;SDS011;44470;53.206;-6.106;2022-10-18T06:22:37;0.50;;;0.50;;
58689;SDS011;44470;53.206;-6.106;2022-10-18T06:25:03;0.35;;;0.35;;
58689;SDS011;44470;53.206;-6.106;2022-10-18T06:27:29;0.75;;;0.60;;
58689;SDS011;44470;53.206;-6.106;2022-10-18T06:29:55;0.70;;;0.70;;
58689;SDS011;44470;53.206;-6.106;2022-10-18T06:32:21;0.88;;;0.50;;
58689;SDS011;44470;53.206;-6.106;2022-10-18T06:34:46;0.95;;;0.57;;
58689;SDS011;44470;53.206;-6.106;2022-10-18T06:37:12;1.27;;;0.52;;
58689;SDS011;44470;53.206;-6.106;2022-10-18T06:39:37;2.20;;;0.57;;
58689;SDS011;44470;53.206;-6.106;2022-10-18T06:42:03;1.30;;;0.60;;
58689;SDS011;44470;53.206;-6.106;2022-10-18T06:44:32;1.83;;;0.40;;
58689;SDS011;44470;53.206;-6.106;2022-10-18T06:46:57;1.73;;;0.93;;
58689;SDS011;44470;53.206;-6.106;2022-10-18T06:49:23;3.50;;;0.50;;
58689;SDS011;44470;53.206;-6.106;2022-10-18T06:51:48;2.58;;;0.68;;
58689;SDS011;44470;53.206;-6.106;2022-10-18T06:54:14;9.80;;;1.63;;
58689;SDS011;44470;53.206;-6.106;2022-10-18T06:56:40;6.38;;;1.15;;
58689;SDS011;44470;53.206;-6.106;2022-10-18T06:59:05;4.40;;;1.33;;
58689;SDS011;44470;53.206;-6.106;2022-10-18T07:01:31;6.72;;;0.95;;
58689;SDS011;44470;53.206;-6.106;2022-10-18T07:03:56;1.25;;;0.80;;
58689;SDS011;44470;53.206;-6.106;2022-10-18T07:06:22;1.98;;;0.63;;
58689;SDS011;44470;53.206;-6.106;2022-10-18T07:08:49;0.65;;;0.50;;
58689;SDS011;44470;53.206;-6.106;2022-10-18T07:11:18;2.25;;;0.60;;
58689;SDS011;44470;53.206;-6.106;2022-10-18T07:13:47;3.28;;;0.80;;
58689;SDS011;44470;53.206;-6.106;2022-10-18T07:16:14;1.33;;;0.85;;
58689;SDS011;44470;53.206;-6.106;2022-10-18T07:18:42;2.53;;;0.45;;
58689;SDS011;44470;53.206;-6.106;2022-10-18T07:21:10;2.63;;;0.85;;
58689;SDS011;44470;53.206;-6.106;2022-10-18T07:23:38;2.88;;;0.55;;
58689;SDS011;44470;53.206;-6.106;2022-10-18T07:26:12;3.92;;;0.90;;
58689;SDS011;44470;53.206;-6.106;2022-10-18T07:28:42;3.53;;;0.82;;
58689;SDS011;44470;53.206;-6.106;2022-10-18T07:31:10;4.22;;;0.77;;
58689;SDS011;44470;53.206;-6.106;2022-10-18T07:33:36;3.92;;;0.82;;
58689;SDS011;44470;53.206;-6.106;2022-10-18T07:36:03;3.35;;;0.93;;
58689;SDS011;44470;53.206;-6.106;2022-10-18T07:38:30;2.05;;;0.80;;
58689;SDS011;44470;53.206;-6.106;2022-10-18T07:40:56;1.27;;;0.70;;
58689;SDS011;44470;53.206;-6.106;2022-10-18T07:43:22;1.83;;;0.57;;
58689;SDS011;44470;53.206;-6.106;2022-10-18T07:45:55;2.88;;;0.77;;
58689;SDS011;44470;53.206;-6.106;2022-10-18T07:48:23;2.05;;;0.70;;
58689;SDS011;44470;53.206;-6.106;2022-10-18T07:50:49;2.65;;;0.80;;
58689;SDS011;44470;53.206;-6.106;2022-10-18T07:53:15;0.80;;;0.50;;
58689;SDS011;44470;53.206;-6.106;2022-10-18T07:55:40;2.03;;;0.82;;
58689;SDS011;44470;53.206;-6.106;2022-10-18T07:58:06;3.05;;;0.80;;
58689;SDS011;44470;53.206;-6.106;2022-10-18T08:00:31;1.98;;;0.60;;
58689;SDS011;44470;53.206;-6.106;2022-10-18T08:02:57;0.90;;;0.60;;
58689;SDS011;44470;53.206;-6.106;2022-10-18T08:05:27;2.67;;;0.73;;
58689;SDS011;44470;53.206;-6.106;2022-10-18T08:07:53;1.50;;;0.90;;
58689;SDS011;44470;53.206;-6.106;2022-10-18T08:10:19;2.50;;;1.00;;
58689;SDS011;44470;53.206;-6.106;2022-10-18T08:12:45;0.65;;;0.60;;
58689;SDS011;44470;53.206;-6.106;2022-10-18T08:15:11;1.02;;;0.85;;
58689;SDS011;44470;53.206;-6.106;2022-10-18T08:17:36;1.30;;;0.70;;
58689;SDS011;44470;53.206;-6.106;2022-10-18T08:20:02;1.65;;;0.75;;
58689;SDS011;44470;53.206;-6.106;2022-10-18T08:22:29;1.27;;;0.70;;
58689;SDS011;44470;53.206;-6.106;2022-10-18T08:24:54;1.92;;;1.63;;
58689;SDS011;44470;53.206;-6.106;2022-10-18T08:27:20;1.50;;;0.68;;
58689;SDS011;44470;53.206;-6.106;2022-10-18T08:29:45;2.20;;;0.93;;
58689;SDS011;44470;53.206;-6.106;2022-10-18T08:32:12;0.60;;;0.60;;
58689;SDS011;44470;53.206;-6.106;2022-10-18T08:34:37;1.85;;;0.98;;
58689;SDS011;44470;53.206;-6.106;2022-10-18T08:37:03;1.50;;;0.88;;
58689;SDS011;44470;53.206;-6.106;2022-10-18T08:39:29;2.85;;;0.77;;
58689;SDS011;44470;53.206;-6.106;2022-10-18T08:44:49;2.13;;;0.88;;
58689;SDS011;44470;53.206;-6.106;2022-10-18T08:49:44;2.03;;;0.60;;
58689;SDS011;44470;53.206;-6.106;2022-10-18T08:52:17;1.55;;;0.70;;
58689;SDS011;44470;53.206;-6.106;2022-10-18T08:54:52;1.63;;;1.08;;
58689;SDS011;44470;53.206;-6.106;2022-10-18T08:57:24;1.80;;;0.70;;
58689;SDS011;44470;53.206;-6.106;2022-10-18T08:59:50;0.95;;;0.80;;
58689;SDS011;44470;53.206;-6.106;2022-10-18T09:02:37;2.10;;;0.90;;
58689;SDS011;44470;53.206;-6.106;2022-10-18T09:05:24;1.27;;;0.80;;
58689;SDS011;44470;53.206;-6.106;2022-10-18T09:08:08;3.15;;;0.88;;
58689;SDS011;44470;53.206;-6.106;2022-10-18T09:10:52;3.58;;;0.77;;
58689;SDS011;44470;53.206;-6.106;2022-10-18T09:16:23;2.97;;;1.10;;
58689;SDS011;44470;53.206;-6.106;2022-10-18T09:18:57;4.30;;;1.25;;
58689;SDS011;44470;53.206;-6.106;2022-10-18T09:24:12;2.80;;;0.98;;
58689;SDS011;44470;53.206;-6.106;2022-10-18T09:26:43;3.38;;;0.90;;
58689;SDS011;44470;53.206;-6.106;2022-10-18T09:37:45;0.98;;;0.93;;
58689;SDS011;44470;53.206;-6.106;2022-10-18T09:42:42;2.35;;;0.82;;
58689;SDS011;44470;53.206;-6.106;2022-10-18T09:47:48;2.85;;;0.90;;
58689;SDS011;44470;53.206;-6.106;2022-10-18T09:50:28;2.03;;;1.33;;
58689;SDS011;44470;53.206;-6.106;2022-10-18T09:58:52;3.20;;;1.58;;
58689;SDS011;44470;53.206;-6.106;2022-10-18T10:01:19;4.10;;;1.20;;
58689;SDS011;44470;53.206;-6.106;2022-10-18T10:03:46;4.05;;;1.20;;
58689;SDS011;44470;53.206;-6.106;2022-10-18T10:08:40;4.05;;;1.27;;
58689;SDS011;44470;53.206;-6.106;2022-10-18T10:11:26;3.30;;;1.30;;
58689;SDS011;44470;53.206;-6.106;2022-10-18T10:14:06;3.13;;;1.50;;
58689;SDS011;44470;53.206;-6.106;2022-10-18T10:16:45;3.00;;;1.00;;
58689;SDS011;44470;53.206;-6.106;2022-10-18T10:19:17;3.33;;;1.17;;
58689;SDS011;44470;53.206;-6.106;2022-10-18T10:21:58;2.05;;;1.02;;
58689;SDS011;44470;53.206;-6.106;2022-10-18T10:32:13;2.95;;;1.20;;
58689;SDS011;44470;53.206;-6.106;2022-10-18T10:34:40;2.65;;;1.30;;
58689;SDS011;44470;53.206;-6.106;2022-10-18T10:43:00;2.08;;;0.88;;
58689;SDS011;44470;53.206;-6.106;2022-10-18T10:45:28;4.38;;;1.60;;
58689;SDS011;44470;53.206;-6.106;2022-10-18T10:48:13;2.45;;;1.50;;
58689;SDS011;44470;53.206;-6.106;2022-10-18T10:51:14;3.70;;;1.38;;
58689;SDS011;44470;53.206;-6.106;2022-10-18T10:56:15;2.53;;;1.10;;
58689;SDS011;44470;53.206;-6.106;2022-10-18T10:58:44;4.97;;;1.23;;
58689;SDS011;44470;53.206;-6.106;2022-10-18T11:01:43;5.20;;;1.30;;
58689;SDS011;44470;53.206;-6.106;2022-10-18T11:04:08;5.53;;;1.50;;
58689;SDS011;44470;53.206;-6.106;2022-10-18T11:07:05;2.20;;;1.00;;
58689;SDS011;44470;53.206;-6.106;2022-10-18T11:10:07;3.25;;;0.98;;
58689;SDS011;44470;53.206;-6.106;2022-10-18T11:15:09;3.22;;;1.20;;
58689;SDS011;44470;53.206;-6.106;2022-10-18T11:20:42;2.17;;;0.98;;
58689;SDS011;44470;53.206;-6.106;2022-10-18T11:23:13;3.30;;;1.10;;
58689;SDS011;44470;53.206;-6.106;2022-10-18T11:26:01;2.97;;;1.30;;
58689;SDS011;44470;53.206;-6.106;2022-10-18T11:48:31;2.35;;;0.93;;
58689;SDS011;44470;53.206;-6.106;2022-10-18T11:51:07;2.83;;;1.00;;
58689;SDS011;44470;53.206;-6.106;2022-10-18T11:53:53;2.08;;;0.82;;
58689;SDS011;44470;53.206;-6.106;2022-10-18T11:56:46;4.95;;;1.40;;
58689;SDS011;44470;53.206;-6.106;2022-10-18T12:05:00;1.17;;;0.68;;
58689;SDS011;44470;53.206;-6.106;2022-10-18T12:07:30;3.28;;;1.17;;
58689;SDS011;44470;53.206;-6.106;2022-10-18T12:10:00;1.15;;;1.00;;
58689;SDS011;44470;53.206;-6.106;2022-10-18T12:12:41;1.45;;;1.02;;
58689;SDS011;44470;53.206;-6.106;2022-10-18T12:15:20;4.03;;;1.00;;
58689;SDS011;44470;53.206;-6.106;2022-10-18T12:17:49;2.38;;;0.88;;
58689;SDS011;44470;53.206;-6.106;2022-10-18T12:20:32;1.60;;;0.80;;
58689;SDS011;44470;53.206;-6.106;2022-10-18T12:25:25;2.58;;;0.90;;
58689;SDS011;44470;53.206;-6.106;2022-10-18T12:33:21;1.25;;;0.80;;
58689;SDS011;44470;53.206;-6.106;2022-10-18T12:38:41;1.90;;;0.77;;
58689;SDS011;44470;53.206;-6.106;2022-10-18T12:41:15;2.43;;;1.27;;
58689;SDS011;44470;53.206;-6.106;2022-10-18T12:43:50;4.47;;;0.90;;
58689;SDS011;44470;53.206;-6.106;2022-10-18T12:46:17;3.38;;;1.38;;
58689;SDS011;44470;53.206;-6.106;2022-10-18T12:48:43;2.78;;;0.90;;
58689;SDS011;44470;53.206;-6.106;2022-10-18T12:51:15;2.35;;;1.08;;
58689;SDS011;44470;53.206;-6.106;2022-10-18T12:54:24;2.28;;;0.95;;
58689;SDS011;44470;53.206;-6.106;2022-10-18T12:56:40;3.58;;;1.15;;
58689;SDS011;44470;53.206;-6.106;2022-10-18T13:09:22;2.65;;;0.77;;
58689;SDS011;44470;53.206;-6.106;2022-10-18T13:11:54;3.28;;;1.15;;
58689;SDS011;44470;53.206;-6.106;2022-10-18T13:31:16;2.88;;;0.98;;
58689;SDS011;44470;53.206;-6.106;2022-10-18T13:33:47;5.30;;;1.35;;
58689;SDS011;44470;53.206;-6.106;2022-10-18T13:54:37;4.35;;;1.38;;
58689;SDS011;44470;53.206;-6.106;2022-10-18T13:57:13;6.18;;;1.58;;
58689;SDS011;44470;53.206;-6.106;2022-10-18T14:21:42;5.95;;;1.30;;
58689;SDS011;44470;53.206;-6.106;2022-10-18T14:24:22;5.07;;;0.90;;
58689;SDS011;44470;53.206;-6.106;2022-10-18T14:29:46;3.10;;;1.10;;
58689;SDS011;44470;53.206;-6.106;2022-10-18T14:32:23;2.15;;;0.98;;
58689;SDS011;44470;53.206;-6.106;2022-10-18T14:34:51;4.30;;;1.27;;
58689;SDS011;44470;53.206;-6.106;2022-10-18T14:39:57;6.45;;;1.20;;
58689;SDS011;44470;53.206;-6.106;2022-10-18T14:42:24;2.45;;;0.77;;
58689;SDS011;44470;53.206;-6.106;2022-10-18T14:44:51;8.68;;;1.30;;
58689;SDS011;44470;53.206;-6.106;2022-10-18T14:47:26;5.82;;;1.30;;
58689;SDS011;44470;53.206;-6.106;2022-10-18T14:49:55;3.25;;;1.13;;
58689;SDS011;44470;53.206;-6.106;2022-10-18T14:55:56;4.10;;;1.05;;
58689;SDS011;44470;53.206;-6.106;2022-10-18T14:58:29;2.90;;;1.00;;
58689;SDS011;44470;53.206;-6.106;2022-10-18T15:00:55;3.60;;;1.00;;
58689;SDS011;44470;53.206;-6.106;2022-10-18T15:03:22;2.55;;;0.68;;
58689;SDS011;44470;53.206;-6.106;2022-10-18T15:05:56;2.80;;;0.80;;
58689;SDS011;44470;53.206;-6.106;2022-10-18T15:08:28;3.08;;;0.70;;
58689;SDS011;44470;53.206;-6.106;2022-10-18T15:11:00;4.00;;;0.90;;
58689;SDS011;44470;53.206;-6.106;2022-10-18T15:13:25;4.82;;;0.95;;
58689;SDS011;44470;53.206;-6.106;2022-10-18T15:15:52;10.00;;;4.20;;
58689;SDS011;44470;53.206;-6.106;2022-10-18T15:18:33;33.15;;;13.40;;
58689;SDS011;44470;53.206;-6.106;2022-10-18T15:21:05;37.55;;;17.77;;
58689;SDS011;44470;53.206;-6.106;2022-10-18T15:23:45;35.35;;;16.63;;
58689;SDS011;44470;53.206;-6.106;2022-10-18T15:26:11;40.33;;;17.85;;
58689;SDS011;44470;53.206;-6.106;2022-10-18T15:31:41;43.47;;;19.73;;
58689;SDS011;44470;53.206;-6.106;2022-10-18T15:34:13;53.03;;;22.83;;
58689;SDS011;44470;53.206;-6.106;2022-10-18T15:36:47;46.83;;;23.60;;
58689;SDS011;44470;53.206;-6.106;2022-10-18T15:41:43;51.30;;;24.52;;
58689;SDS011;44470;53.206;-6.106;2022-10-18T15:46:45;52.78;;;25.13;;
58689;SDS011;44470;53.206;-6.106;2022-10-18T15:49:34;52.45;;;24.85;;
58689;SDS011;44470;53.206;-6.106;2022-10-18T15:54:59;52.58;;;24.60;;
58689;SDS011;44470;53.206;-6.106;2022-10-18T15:57:27;53.63;;;24.67;;
58689;SDS011;44470;53.206;-6.106;2022-10-18T16:00:03;49.40;;;24.33;;
58689;SDS011;44470;53.206;-6.106;2022-10-18T16:02:37;44.90;;;23.92;;
58689;SDS011;44470;53.206;-6.106;2022-10-18T16:05:02;48.13;;;23.48;;
58689;SDS011;44470;53.206;-6.106;2022-10-18T16:07:28;45.80;;;23.85;;
58689;SDS011;44470;53.206;-6.106;2022-10-18T16:09:54;49.70;;;24.00;;
58689;SDS011;44470;53.206;-6.106;2022-10-18T16:12:19;48.92;;;23.60;;
58689;SDS011;44470;53.206;-6.106;2022-10-18T16:14:45;51.45;;;23.13;;
58689;SDS011;44470;53.206;-6.106;2022-10-18T16:17:10;48.00;;;23.08;;
58689;SDS011;44470;53.206;-6.106;2022-10-18T16:19:42;45.17;;;22.35;;
58689;SDS011;44470;53.206;-6.106;2022-10-18T16:22:11;49.45;;;23.13;;
58689;SDS011;44470;53.206;-6.106;2022-10-18T16:24:37;46.63;;;22.30;;
58689;SDS011;44470;53.206;-6.106;2022-10-18T16:27:04;41.47;;;21.63;;
58689;SDS011;44470;53.206;-6.106;2022-10-18T16:29:29;41.30;;;21.45;;
58689;SDS011;44470;53.206;-6.106;2022-10-18T16:31:57;43.70;;;21.30;;
58689;SDS011;44470;53.206;-6.106;2022-10-18T16:34:23;40.95;;;20.67;;
58689;SDS011;44470;53.206;-6.106;2022-10-18T16:36:50;41.15;;;19.55;;
58689;SDS011;44470;53.206;-6.106;2022-10-18T16:39:17;41.80;;;19.58;;
58689;SDS011;44470;53.206;-6.106;2022-10-18T16:41:44;38.03;;;18.58;;
58689;SDS011;44470;53.206;-6.106;2022-10-18T16:44:10;41.70;;;18.95;;
58689;SDS011;44470;53.206;-6.106;2022-10-18T16:46:36;41.55;;;18.48;;
58689;SDS011;44470;53.206;-6.106;2022-10-18T16:49:02;38.55;;;17.88;;
58689;SDS011;44470;53.206;-6.106;2022-10-18T16:51:28;39.08;;;18.70;;
58689;SDS011;44470;53.206;-6.106;2022-10-18T16:53:54;37.15;;;16.88;;
58689;SDS011;44470;53.206;-6.106;2022-10-18T16:56:20;37.22;;;16.08;;
58689;SDS011;44470;53.206;-6.106;2022-10-18T16:58:48;34.35;;;16.45;;
58689;SDS011;44470;53.206;-6.106;2022-10-18T17:01:15;32.10;;;15.70;;
58689;SDS011;44470;53.206;-6.106;2022-10-18T17:03:42;36.15;;;15.75;;
58689;SDS011;44470;53.206;-6.106;2022-10-18T17:06:15;31.77;;;14.88;;
58689;SDS011;44470;53.206;-6.106;2022-10-18T17:08:41;30.52;;;13.65;;
58689;SDS011;44470;53.206;-6.106;2022-10-18T17:11:08;27.70;;;13.60;;
58689;SDS011;44470;53.206;-6.106;2022-10-18T17:13:34;31.15;;;12.38;;
58689;SDS011;44470;53.206;-6.106;2022-10-18T17:16:00;31.17;;;13.07;;
58689;SDS011;44470;53.206;-6.106;2022-10-18T17:18:27;26.08;;;11.07;;
58689;SDS011;44470;53.206;-6.106;2022-10-18T17:20:55;27.75;;;11.38;;
58689;SDS011;44470;53.206;-6.106;2022-10-18T17:23:21;24.30;;;10.05;;
58689;SDS011;44470;53.206;-6.106;2022-10-18T17:25:46;21.02;;;10.30;;
58689;SDS011;44470;53.206;-6.106;2022-10-18T17:28:13;24.67;;;9.95;;
58689;SDS011;44470;53.206;-6.106;2022-10-18T17:30:40;27.73;;;10.07;;
58689;SDS011;44470;53.206;-6.106;2022-10-18T17:33:06;23.40;;;9.48;;
58689;SDS011;44470;53.206;-6.106;2022-10-18T17:35:32;21.67;;;9.57;;
58689;SDS011;44470;53.206;-6.106;2022-10-18T17:37:58;20.55;;;9.02;;
58689;SDS011;44470;53.206;-6.106;2022-10-18T17:40:23;22.83;;;8.82;;
58689;SDS011;44470;53.206;-6.106;2022-10-18T17:42:49;21.52;;;8.57;;
58689;SDS011;44470;53.206;-6.106;2022-10-18T17:45:16;24.13;;;9.20;;
58689;SDS011;44470;53.206;-6.106;2022-10-18T17:47:42;19.70;;;7.97;;
58689;SDS011;44470;53.206;-6.106;2022-10-18T17:50:08;19.20;;;7.88;;
58689;SDS011;44470;53.206;-6.106;2022-10-18T17:52:34;20.45;;;8.40;;
58689;SDS011;44470;53.206;-6.106;2022-10-18T17:54:59;18.65;;;7.78;;
58689;SDS011;44470;53.206;-6.106;2022-10-18T17:57:24;18.38;;;7.55;;
58689;SDS011;44470;53.206;-6.106;2022-10-18T17:59:50;19.63;;;7.75;;
58689;SDS011;44470;53.206;-6.106;2022-10-18T18:02:19;16.85;;;6.95;;
58689;SDS011;44470;53.206;-6.106;2022-10-18T18:04:44;18.58;;;7.22;;